createdAt,value
2023-04-03T00:02:25.377Z,53.21
2023-04-03T00:04:53.265Z,53.31
2023-04-03T00:07:21.295Z,53.42
2023-04-03T00:09:49.186Z,53.48
2023-04-03T00:12:18.564Z,53.58
2023-04-03T00:14:46.407Z,53.44
2023-04-03T00:17:15.391Z,53.55
2023-04-03T00:19:43.257Z,53.68
2023-04-03T00:22:11.152Z,53.81
2023-04-03T00:24:39.064Z,53.76
2023-04-03T00:27:06.954Z,53.84
2023-04-03T00:29:36.197Z,53.87
2023-04-03T00:32:04.136Z,53.79
2023-04-03T00:34:32.148Z,53.77
2023-04-03T00:37:00.182Z,53.85
2023-04-03T00:39:28.294Z,53.78
2023-04-03T00:41:56.383Z,53.55
2023-04-03T00:44:24.716Z,53.80
2023-04-03T00:46:53.933Z,53.75
2023-04-03T00:49:21.809Z,53.75
2023-04-03T00:51:49.675Z,53.63
2023-04-03T00:54:17.752Z,53.65
2023-04-03T00:56:45.674Z,53.71
2023-04-03T00:59:14.616Z,53.68
2023-04-03T01:01:42.474Z,53.60
2023-04-03T01:04:30.200Z,53.61
2023-04-03T01:06:58.592Z,53.65
2023-04-03T01:09:26.424Z,53.60
2023-04-03T01:11:54.304Z,53.52
2023-04-03T01:14:22.241Z,53.40
2023-04-03T01:16:55.109Z,53.29
2023-04-03T01:19:23.062Z,53.38
2023-04-03T01:22:05.880Z,53.31
2023-04-03T01:24:35.205Z,53.57
2023-04-03T01:27:03.693Z,53.48
2023-04-03T01:29:31.563Z,53.54
2023-04-03T01:32:01.275Z,53.30
2023-04-03T01:34:29.276Z,53.28
2023-04-03T01:36:57.331Z,53.35
2023-04-03T01:39:25.255Z,53.25
2023-04-03T01:41:53.139Z,53.39
2023-04-03T01:44:21.008Z,53.40
2023-04-03T01:46:48.888Z,53.61
2023-04-03T01:49:18.232Z,53.76
2023-04-03T01:51:46.139Z,53.87
2023-04-03T01:54:14.194Z,54.04
2023-04-03T01:56:42.162Z,53.99
2023-04-03T01:59:10.190Z,54.18
2023-04-03T02:01:38.166Z,54.18
2023-04-03T02:04:06.590Z,54.18
2023-04-03T02:06:35.979Z,54.15
2023-04-03T02:09:03.915Z,54.31
2023-04-03T02:11:31.968Z,54.44
2023-04-03T02:13:59.859Z,54.32
2023-04-03T02:16:27.841Z,54.42
2023-04-03T02:18:55.787Z,54.19
2023-04-03T02:21:23.695Z,54.16
2023-04-03T02:23:52.952Z,54.18
2023-04-03T02:26:20.833Z,54.25
2023-04-03T02:28:48.682Z,54.14
2023-04-03T02:31:16.609Z,54.27
2023-04-03T02:33:44.567Z,54.13
2023-04-03T02:36:12.459Z,54.26
2023-04-03T02:38:40.365Z,54.22
2023-04-03T02:41:10.474Z,54.47
2023-04-03T02:43:38.361Z,54.27
2023-04-03T02:46:06.455Z,54.29
2023-04-03T02:48:34.513Z,54.43
2023-04-03T02:51:03.140Z,54.44
2023-04-03T02:53:31.015Z,54.47
2023-04-03T02:55:58.901Z,54.58
2023-04-03T02:58:28.152Z,54.50
2023-04-03T03:00:56.002Z,54.50
2023-04-03T03:03:24.056Z,54.57
2023-04-03T03:05:51.920Z,54.76
2023-04-03T03:08:21.290Z,54.65
2023-04-03T03:10:49.183Z,54.63
2023-04-03T03:13:17.044Z,54.84
2023-04-03T03:15:46.315Z,54.76
2023-04-03T03:18:14.198Z,54.65
2023-04-03T03:20:42.066Z,54.91
2023-04-03T03:23:09.966Z,54.84
2023-04-03T03:25:40.131Z,54.99
2023-04-03T03:28:08.075Z,54.94
2023-04-03T03:30:36.174Z,54.92
2023-04-03T03:33:05.463Z,54.85
2023-04-03T03:35:33.460Z,54.98
2023-04-03T03:38:01.565Z,54.98
2023-04-03T03:40:29.432Z,55.13
2023-04-03T03:42:57.267Z,55.16
2023-04-03T03:45:25.624Z,55.19
2023-04-03T03:47:53.489Z,55.16
2023-04-03T03:50:22.748Z,55.15
2023-04-03T03:52:50.745Z,55.13
2023-04-03T03:55:18.790Z,55.19
2023-04-03T03:57:46.724Z,55.27
2023-04-03T04:00:15.476Z,55.30
2023-04-03T04:02:43.459Z,55.36
2023-04-03T04:05:11.416Z,55.29
2023-04-03T04:07:40.664Z,55.27
2023-04-03T04:10:09.653Z,55.23
2023-04-03T04:12:37.649Z,55.23
2023-04-03T04:15:06.212Z,55.09
2023-04-03T04:17:35.635Z,55.03
2023-04-03T04:20:03.765Z,54.98
2023-04-03T04:22:31.666Z,54.92
2023-04-03T04:25:00.867Z,54.93
2023-04-03T04:27:28.801Z,55.09
2023-04-03T04:29:58.795Z,55.02
2023-04-03T04:32:27.256Z,55.06
2023-04-03T04:34:55.308Z,55.07
2023-04-03T04:37:23.239Z,55.02
2023-04-03T04:39:51.107Z,55.15
2023-04-03T04:42:20.401Z,55.11
2023-04-03T04:44:48.262Z,55.35
2023-04-03T04:47:16.245Z,55.47
2023-04-03T04:49:44.152Z,55.68
2023-04-03T04:52:11.998Z,55.66
2023-04-03T04:54:39.874Z,55.66
2023-04-03T04:57:07.823Z,55.76
2023-04-03T04:59:37.081Z,56.01
2023-04-03T05:02:05.007Z,56.06
2023-04-03T05:04:34.301Z,56.10
2023-04-03T05:07:02.246Z,56.24
2023-04-03T05:09:30.136Z,56.34
2023-04-03T05:11:58.071Z,56.47
2023-04-03T05:14:26.159Z,56.43
2023-04-03T05:16:55.583Z,56.53
2023-04-03T05:19:23.458Z,56.41
2023-04-03T05:21:51.334Z,56.56
2023-04-03T05:24:20.296Z,56.45
2023-04-03T05:26:48.200Z,56.62
2023-04-03T05:29:16.155Z,56.60
2023-04-03T05:31:44.103Z,56.91
2023-04-03T05:34:13.546Z,56.72
2023-04-03T05:36:41.416Z,56.80
2023-04-03T05:39:09.359Z,56.81
2023-04-03T05:41:37.246Z,57.22
2023-04-03T05:44:05.153Z,57.01
2023-04-03T05:46:33.146Z,56.99
2023-04-03T05:49:01.306Z,57.21
2023-04-03T05:51:35.821Z,57.04
2023-04-03T05:54:07.122Z,57.02
2023-04-03T05:56:35.031Z,57.14
2023-04-03T05:59:02.994Z,57.14
2023-04-03T06:01:30.918Z,57.13
2023-04-03T06:04:00.072Z,57.16
2023-04-03T06:06:28.166Z,57.19
2023-04-03T06:08:57.650Z,57.28
2023-04-03T06:11:25.536Z,57.38
2023-04-03T06:13:53.443Z,57.27
2023-04-03T06:16:22.126Z,57.21
2023-04-03T06:18:50.257Z,57.22
2023-04-03T06:21:18.147Z,57.03
2023-04-03T06:23:46.091Z,56.99
2023-04-03T06:26:15.940Z,56.93
2023-04-03T06:28:43.843Z,56.91
2023-04-03T06:31:11.847Z,56.77
2023-04-03T06:33:39.827Z,56.74
2023-04-03T06:36:08.804Z,56.71
2023-04-03T06:38:37.337Z,56.61
2023-04-03T06:41:05.336Z,56.70
2023-04-03T06:43:34.987Z,56.60
2023-04-03T06:46:03.191Z,56.77
2023-04-03T06:48:31.133Z,56.65
2023-04-03T06:50:59.290Z,56.56
2023-04-03T06:53:27.537Z,56.52
2023-04-03T06:55:55.500Z,56.72
2023-04-03T06:58:25.997Z,56.45
2023-04-03T07:00:55.729Z,56.43
2023-04-03T07:03:26.243Z,56.29
2023-04-03T07:05:54.472Z,56.35
2023-04-03T07:08:23.987Z,56.33
2023-04-03T07:10:52.356Z,56.23
2023-04-03T07:13:20.649Z,56.14
2023-04-03T07:15:49.892Z,56.00
2023-04-03T07:18:19.429Z,55.79
2023-04-03T07:20:47.542Z,55.66
2023-04-03T07:23:16.132Z,55.51
2023-04-03T07:25:45.495Z,55.50
2023-04-03T07:28:14.788Z,55.30
2023-04-03T07:30:47.092Z,55.26
2023-04-03T07:33:15.767Z,55.17
2023-04-03T07:35:45.865Z,54.94
2023-04-03T07:38:13.873Z,54.85
2023-04-03T07:40:42.288Z,54.85
2023-04-03T07:43:10.310Z,54.57
2023-04-03T07:45:38.382Z,54.43
2023-04-03T07:48:07.317Z,54.21
2023-04-03T07:50:35.700Z,53.97
2023-04-03T07:53:05.045Z,54.03
2023-04-03T07:55:35.118Z,53.96
2023-04-03T07:58:03.211Z,53.69
2023-04-03T08:00:31.270Z,53.87
2023-04-03T08:02:59.283Z,53.63
2023-04-03T08:05:27.439Z,53.62
2023-04-03T08:07:55.358Z,53.54
2023-04-03T08:10:24.650Z,53.42
2023-04-03T08:12:52.713Z,53.27
2023-04-03T08:15:21.524Z,52.94
2023-04-03T08:17:49.717Z,52.67
2023-04-03T08:20:18.444Z,52.71
2023-04-03T08:22:46.472Z,52.61
2023-04-03T08:25:14.664Z,52.76
2023-04-03T08:27:43.928Z,52.87
2023-04-03T08:30:12.771Z,52.80
2023-04-03T08:32:42.904Z,52.76
2023-04-03T08:35:11.709Z,52.88
2023-04-03T08:37:39.841Z,53.07
2023-04-03T08:40:08.860Z,53.08
2023-04-03T08:42:42.883Z,53.08
2023-04-03T08:45:13.096Z,53.07
2023-04-03T08:47:42.840Z,52.92
2023-04-03T08:50:14.147Z,52.65
2023-04-03T08:52:44.085Z,52.57
2023-04-03T08:55:19.879Z,52.81
2023-04-03T08:57:48.186Z,52.51
2023-04-03T09:00:21.463Z,52.45
2023-04-03T09:02:50.111Z,52.39
2023-04-03T09:05:19.005Z,52.37
2023-04-03T09:07:50.088Z,52.30
2023-04-03T09:10:20.639Z,52.10
2023-04-03T09:12:50.291Z,51.91
2023-04-03T09:15:35.404Z,51.78
2023-04-03T09:18:08.026Z,51.67
2023-04-03T09:20:42.664Z,51.60
2023-04-03T09:23:20.883Z,51.54
2023-04-03T09:25:49.187Z,51.26
2023-04-03T09:28:19.796Z,51.22
2023-04-03T09:30:49.100Z,50.93
2023-04-03T09:33:17.591Z,50.71
2023-04-03T09:35:49.045Z,50.74
2023-04-03T09:38:19.359Z,50.54
2023-04-03T09:40:47.591Z,50.40
2023-04-03T09:43:30.186Z,50.45
2023-04-03T09:46:20.980Z,50.09
2023-04-03T09:49:05.169Z,50.08
2023-04-03T09:51:36.819Z,49.69
2023-04-03T09:54:27.216Z,49.22
2023-04-03T09:56:55.269Z,48.73
2023-04-03T09:59:23.189Z,48.44
2023-04-03T10:02:00.893Z,47.96
2023-04-03T10:04:38.761Z,47.72
2023-04-03T10:07:06.805Z,47.33
2023-04-03T10:09:35.025Z,47.40
2023-04-03T10:12:05.708Z,47.30
2023-04-03T10:14:33.976Z,47.25
2023-04-03T10:17:07.962Z,47.01
2023-04-03T10:19:38.801Z,46.56
2023-04-03T10:22:09.567Z,46.59
2023-04-03T10:24:41.065Z,45.97
2023-04-03T10:27:10.727Z,45.90
2023-04-03T10:29:42.040Z,45.60
2023-04-03T10:32:29.929Z,45.56
2023-04-03T10:35:05.110Z,44.74
2023-04-03T10:37:38.450Z,44.73
2023-04-03T10:40:12.736Z,44.39
2023-04-03T10:42:43.039Z,44.63
2023-04-03T10:45:21.242Z,44.02
2023-04-03T10:47:55.957Z,43.19
2023-04-03T10:50:34.281Z,43.35
2023-04-03T10:53:05.446Z,43.40
2023-04-03T10:55:37.894Z,42.93
2023-04-03T10:58:06.584Z,42.61
2023-04-03T11:00:38.960Z,42.23
2023-04-03T11:03:11.298Z,41.87
2023-04-03T11:05:41.678Z,41.66
2023-04-03T11:08:13.633Z,40.78
2023-04-03T11:10:43.424Z,41.19
2023-04-03T11:13:14.860Z,40.21
2023-04-03T11:15:43.416Z,38.83
2023-04-03T11:18:14.911Z,39.15
2023-04-03T11:20:44.313Z,40.05
2023-04-03T11:23:16.332Z,40.88
2023-04-03T11:25:45.705Z,40.72
2023-04-03T11:28:14.689Z,40.04
2023-04-03T11:30:53.560Z,40.08
2023-04-03T11:33:35.025Z,38.39
2023-04-03T11:36:12.536Z,38.58
2023-04-03T11:38:48.096Z,37.94
2023-04-03T11:41:16.905Z,37.59
2023-04-03T11:43:47.957Z,37.33
2023-04-03T11:46:17.424Z,37.30
2023-04-03T11:48:52.321Z,36.67
2023-04-03T11:51:43.777Z,36.58
2023-04-03T11:54:51.763Z,35.89
2023-04-03T11:57:47.809Z,35.17
2023-04-03T12:00:53.769Z,34.45
2023-04-03T12:04:03.964Z,33.95
2023-04-03T12:07:14.802Z,34.27
2023-04-03T12:10:03.548Z,32.51
2023-04-03T12:12:39.643Z,32.31
2023-04-03T12:15:55.330Z,32.56
2023-04-03T12:19:04.075Z,32.67
2023-04-03T12:22:08.562Z,32.94
2023-04-03T12:24:36.906Z,33.17
2023-04-03T12:27:08.098Z,33.39
2023-04-03T12:29:41.355Z,33.43
2023-04-03T12:32:15.192Z,32.88
2023-04-03T12:34:53.022Z,32.84
2023-04-03T12:37:32.148Z,32.97
2023-04-03T12:40:06.965Z,33.05
2023-04-03T12:42:55.425Z,32.47
2023-04-03T12:45:23.983Z,31.91
2023-04-03T12:47:53.258Z,32.26
2023-04-03T12:50:25.487Z,31.98
2023-04-03T12:53:02.706Z,31.24
2023-04-03T12:55:30.772Z,30.51
2023-04-03T12:57:59.082Z,30.55
2023-04-03T13:00:35.386Z,30.65
2023-04-03T13:03:04.401Z,30.67
2023-04-03T13:05:34.573Z,30.62
2023-04-03T13:08:06.807Z,30.01
2023-04-03T13:10:34.965Z,29.74
2023-04-03T13:13:12.002Z,30.11
2023-04-03T13:15:44.537Z,30.38
2023-04-03T13:18:27.789Z,30.07
2023-04-03T13:20:58.689Z,30.38
2023-04-03T13:23:28.325Z,30.31
2023-04-03T13:26:03.750Z,29.92
2023-04-03T13:28:32.077Z,30.23
2023-04-03T13:31:06.689Z,30.23
2023-04-03T13:33:38.801Z,29.87
2023-04-03T13:36:08.031Z,30.16
2023-04-03T13:38:37.960Z,30.42
2023-04-03T13:41:08.652Z,30.13
2023-04-03T13:43:37.603Z,29.83
2023-04-03T13:46:08.671Z,29.20
2023-04-03T13:48:41.347Z,29.06
2023-04-03T13:51:19.612Z,29.38
2023-04-03T13:53:51.439Z,29.56
2023-04-03T13:56:22.845Z,29.36
2023-04-03T13:59:02.448Z,28.70
2023-04-03T14:01:36.730Z,28.67
2023-04-03T14:04:13.610Z,28.40
2023-04-03T14:06:43.896Z,28.67
2023-04-03T14:09:13.308Z,28.39
2023-04-03T14:11:41.514Z,28.72
2023-04-03T14:14:15.559Z,28.77
2023-04-03T14:16:47.035Z,28.76
2023-04-03T14:19:21.477Z,28.57
2023-04-03T14:21:49.396Z,28.82
2023-04-03T14:24:20.198Z,28.45
2023-04-03T14:26:48.296Z,28.50
2023-04-03T14:29:16.383Z,28.18
2023-04-03T14:31:44.880Z,28.01
2023-04-03T14:34:15.890Z,27.93
2023-04-03T14:36:44.567Z,27.91
2023-04-03T14:39:14.201Z,27.72
2023-04-03T14:41:43.521Z,27.51
2023-04-03T14:44:11.462Z,27.86
2023-04-03T14:46:55.598Z,28.09
2023-04-03T14:49:33.021Z,28.25
2023-04-03T14:52:01.557Z,27.63
2023-04-03T14:54:30.246Z,27.71
2023-04-03T14:57:01.012Z,27.49
2023-04-03T14:59:31.246Z,27.48
2023-04-03T15:01:59.435Z,26.98
2023-04-03T15:04:33.898Z,26.82
2023-04-03T15:07:02.044Z,27.01
2023-04-03T15:09:30.113Z,27.55
2023-04-03T15:11:59.553Z,27.37
2023-04-03T15:14:36.410Z,26.85
2023-04-03T15:17:05.666Z,26.88
2023-04-03T15:19:33.970Z,26.90
2023-04-03T15:22:02.002Z,26.45
2023-04-03T15:24:30.034Z,26.32
2023-04-03T15:26:59.580Z,26.06
2023-04-03T15:29:27.709Z,26.19
2023-04-03T15:31:56.066Z,26.53
2023-04-03T15:34:24.055Z,26.40
2023-04-03T15:36:53.548Z,25.76
2023-04-03T15:39:21.906Z,26.54
2023-04-03T15:41:51.144Z,26.26
2023-04-03T15:44:20.826Z,26.06
2023-04-03T15:46:53.234Z,25.26
2023-04-03T15:49:21.596Z,25.13
2023-04-03T15:51:55.110Z,25.05
2023-04-03T15:54:24.890Z,25.63
2023-04-03T15:56:56.615Z,25.54
2023-04-03T15:59:26.336Z,25.68
2023-04-03T16:02:00.723Z,25.70
2023-04-03T16:04:28.981Z,25.44
2023-04-03T16:06:57.012Z,25.63
2023-04-03T16:09:24.972Z,24.87
2023-04-03T16:11:52.874Z,24.93
2023-04-03T16:14:22.738Z,25.47
2023-04-03T16:16:52.197Z,24.92
2023-04-03T16:19:20.560Z,25.21
2023-04-03T16:21:48.720Z,25.24
2023-04-03T16:24:25.473Z,25.44
2023-04-03T16:26:54.372Z,24.96
2023-04-03T16:29:22.367Z,25.52
2023-04-03T16:31:53.088Z,25.42
2023-04-03T16:34:21.437Z,25.29
2023-04-03T16:36:49.384Z,25.40
2023-04-03T16:39:17.553Z,25.77
2023-04-03T16:41:46.259Z,25.25
2023-04-03T16:44:14.743Z,24.71
2023-04-03T16:46:42.880Z,25.04
2023-04-03T16:49:12.177Z,24.98
2023-04-03T16:51:40.117Z,25.11
2023-04-03T16:54:10.729Z,25.03
2023-04-03T16:56:38.663Z,24.97
2023-04-03T16:59:06.647Z,25.35
2023-04-03T17:01:36.220Z,24.90
2023-04-03T17:04:04.157Z,25.32
2023-04-03T17:06:33.632Z,25.71
2023-04-03T17:09:01.581Z,25.91
2023-04-03T17:11:29.808Z,26.51
2023-04-03T17:13:57.717Z,27.17
2023-04-03T17:16:25.800Z,28.16
2023-04-03T17:18:54.051Z,29.00
2023-04-03T17:21:21.992Z,29.47
2023-04-03T17:23:55.107Z,30.29
2023-04-03T17:26:23.540Z,30.66
2023-04-03T17:28:51.802Z,31.48
2023-04-03T17:31:19.730Z,32.14
2023-04-03T17:33:47.632Z,32.72
2023-04-03T17:36:15.928Z,33.42
2023-04-03T17:38:43.883Z,33.53
2023-04-03T17:41:13.245Z,33.36
2023-04-03T17:43:41.311Z,32.87
2023-04-03T17:46:10.232Z,32.56
2023-04-03T17:48:39.349Z,32.58
2023-04-03T17:51:07.482Z,32.61
2023-04-03T17:53:35.542Z,32.78
2023-04-03T17:56:07.236Z,32.97
2023-04-03T17:58:36.666Z,33.24
2023-04-03T18:01:11.912Z,34.02
2023-04-03T18:03:40.092Z,34.48
2023-04-03T18:06:09.183Z,34.80
2023-04-03T18:08:37.710Z,35.20
2023-04-03T18:11:06.504Z,35.70
2023-04-03T18:13:37.712Z,36.12
2023-04-03T18:16:05.889Z,36.35
2023-04-03T18:18:33.945Z,36.85
2023-04-03T18:21:01.834Z,36.94
2023-04-03T18:23:29.963Z,36.99
2023-04-03T18:25:57.885Z,37.16
2023-04-03T18:28:27.060Z,37.68
2023-04-03T18:30:56.471Z,37.80
2023-04-03T18:33:24.379Z,38.14
2023-04-03T18:35:52.537Z,38.32
2023-04-03T18:38:20.467Z,38.57
2023-04-03T18:40:50.406Z,38.96
2023-04-03T18:43:18.736Z,39.14
2023-04-03T18:45:47.539Z,39.21
2023-04-03T18:48:16.982Z,39.38
2023-04-03T18:50:45.421Z,39.47
2023-04-03T18:53:13.675Z,39.54
2023-04-03T18:55:41.819Z,39.63
2023-04-03T18:58:09.891Z,39.85
2023-04-03T19:00:37.912Z,39.75
2023-04-03T19:03:06.243Z,40.16
2023-04-03T19:05:35.548Z,40.62
2023-04-03T19:08:03.451Z,40.86
2023-04-03T19:10:31.678Z,41.24
2023-04-03T19:12:59.557Z,41.07
2023-04-03T19:15:27.482Z,41.09
2023-04-03T19:17:55.427Z,41.15
2023-04-03T19:20:23.589Z,41.42
2023-04-03T19:22:54.012Z,41.63
2023-04-03T19:25:22.118Z,41.76
2023-04-03T19:27:50.436Z,42.17
2023-04-03T19:30:18.325Z,42.49
2023-04-03T19:32:46.416Z,42.63
2023-04-03T19:35:14.636Z,43.21
2023-04-03T19:37:42.683Z,43.71
2023-04-03T19:40:12.757Z,43.71
2023-04-03T19:42:42.983Z,43.79
2023-04-03T19:45:11.741Z,43.95
2023-04-03T19:47:39.706Z,43.84
2023-04-03T19:50:08.496Z,43.96
2023-04-03T19:52:36.377Z,43.78
2023-04-03T19:55:04.289Z,43.89
2023-04-03T19:57:33.596Z,43.81
2023-04-03T20:00:01.841Z,43.98
2023-04-03T20:02:29.775Z,44.17
2023-04-03T20:04:57.680Z,44.10
2023-04-03T20:07:25.582Z,44.37
2023-04-03T20:09:53.657Z,44.18
2023-04-03T20:12:21.570Z,44.53
2023-04-03T20:14:51.099Z,44.66
2023-04-03T20:17:19.031Z,45.13
2023-04-03T20:19:46.917Z,45.46
2023-04-03T20:22:14.823Z,46.03
2023-04-03T20:24:42.898Z,46.48
2023-04-03T20:27:10.926Z,46.63
2023-04-03T20:29:39.500Z,46.52
2023-04-03T20:32:10.551Z,46.42
2023-04-03T20:34:38.476Z,46.49
2023-04-03T20:37:06.740Z,46.51
2023-04-03T20:39:34.971Z,46.62
2023-04-03T20:42:03.481Z,46.45
2023-04-03T20:44:32.055Z,46.54
2023-04-03T20:47:00.041Z,46.50
2023-04-03T20:49:29.438Z,46.60
2023-04-03T20:51:57.309Z,46.69
2023-04-03T20:54:25.390Z,46.85
2023-04-03T20:56:53.251Z,46.98
2023-04-03T20:59:22.442Z,47.27
2023-04-03T21:01:50.477Z,47.51
2023-04-03T21:04:21.360Z,47.73
2023-04-03T21:07:27.446Z,47.86
2023-04-03T21:10:32.737Z,47.89
2023-04-03T21:13:37.875Z,48.04
2023-04-03T21:16:05.435Z,48.01
2023-04-03T21:19:07.172Z,48.07
2023-04-03T21:21:37.067Z,48.32
2023-04-03T21:24:06.819Z,48.37
2023-04-03T21:26:35.049Z,48.43
2023-04-03T21:29:02.951Z,48.55
2023-04-03T21:31:51.130Z,48.53
2023-04-03T21:34:20.914Z,48.61
2023-04-03T21:36:49.960Z,48.70
2023-04-03T21:39:18.050Z,48.69
2023-04-03T21:41:46.299Z,48.72
2023-04-03T21:44:14.153Z,48.83
2023-04-03T21:46:42.304Z,48.70
2023-04-03T21:49:10.193Z,48.74
2023-04-03T21:51:39.998Z,48.91
2023-04-03T21:54:07.980Z,48.82
2023-04-03T21:56:35.847Z,48.90
2023-04-03T21:59:03.953Z,48.99
2023-04-03T22:01:32.489Z,49.10
2023-04-03T22:04:01.766Z,49.21
2023-04-03T22:06:29.936Z,49.23
2023-04-03T22:08:59.271Z,49.21
2023-04-03T22:11:27.241Z,49.26
2023-04-03T22:13:55.525Z,49.36
2023-04-03T22:16:23.993Z,49.49
2023-04-03T22:18:52.847Z,49.51
2023-04-03T22:21:22.399Z,49.42
2023-04-03T22:23:50.628Z,49.45
2023-04-03T22:26:19.894Z,49.42
2023-04-03T22:28:48.027Z,49.50
2023-04-03T22:31:16.424Z,49.38
2023-04-03T22:33:45.127Z,49.52
2023-04-03T22:36:13.830Z,49.73
2023-04-03T22:38:43.417Z,49.83
2023-04-03T22:41:11.876Z,49.82
2023-04-03T22:43:41.523Z,49.96
2023-04-03T22:46:10.276Z,49.99
2023-04-03T22:48:38.653Z,50.20
2023-04-03T22:51:08.518Z,50.32
2023-04-03T22:53:36.717Z,50.55
2023-04-03T22:56:08.372Z,50.79
2023-04-03T22:58:36.886Z,50.88
2023-04-03T23:01:08.029Z,51.00
2023-04-03T23:03:36.201Z,51.18
2023-04-03T23:06:04.172Z,51.35
2023-04-03T23:08:32.670Z,51.42
2023-04-03T23:11:00.711Z,51.28
2023-04-03T23:13:28.703Z,51.43
2023-04-03T23:15:56.729Z,51.79
2023-04-03T23:18:26.099Z,51.81
2023-04-03T23:20:55.034Z,51.89
2023-04-03T23:23:23.695Z,51.91
2023-04-03T23:25:54.846Z,51.93
2023-04-03T23:28:22.892Z,52.16
2023-04-03T23:30:51.417Z,52.11
2023-04-03T23:33:19.283Z,51.92
2023-04-03T23:35:49.242Z,52.05
2023-04-03T23:38:17.682Z,52.03
2023-04-03T23:40:45.959Z,52.04
2023-04-03T23:43:13.924Z,51.61
2023-04-03T23:45:41.908Z,51.76
2023-04-03T23:48:10.001Z,51.86
2023-04-03T23:50:38.408Z,51.73
2023-04-03T23:53:08.583Z,51.63
2023-04-03T23:55:36.727Z,51.61
2023-04-03T23:58:04.651Z,51.56
